TimeEDT,TemperatureF,Dew PointF,Humidity,Sea Level PressureIn,VisibilityMPH,Wind Direction,Wind SpeedMPH,Gust SpeedMPH,PrecipitationIn,Events,Conditions,WindDirDegrees,DateUTC
12:01 AM,73.4,71.6,94,29.95,5.0,Variable,3.5,-,0.01,Rain,Rain,0,2013-08-09 04:01:00
12:11 AM,73.4,71.6,94,29.95,4.0,WNW,3.5,-,0.04,Rain-Thunderstorm,Rain,300,2013-08-09 04:11:00
12:23 AM,73.4,71.6,94,29.95,3.0,Calm,Calm,-,0.08,Rain,Rain,0,2013-08-09 04:23:00
12:53 AM,73.0,71.1,93,29.94,5.0,Calm,Calm,-,0.13,Rain,Light Rain,0,2013-08-09 04:53:00
1:53 AM,73.0,71.1,93,29.93,6.0,Calm,Calm,-,0.00,Rain,Light Rain,0,2013-08-09 05:53:00
2:19 AM,73.4,71.6,94,29.93,6.0,Calm,Calm,-,0.00,,Mostly Cloudy,0,2013-08-09 06:19:00
2:53 AM,72.0,71.1,97,29.92,3.0,Calm,Calm,-,0.00,,Scattered Clouds,0,2013-08-09 06:53:00
3:05 AM,71.6,71.6,100,29.93,4.0,Calm,Calm,-,N/A,,Mostly Cloudy,0,2013-08-09 07:05:00
3:53 AM,72.0,71.1,97,29.93,6.0,SSW,3.5,-,N/A,,Overcast,210,2013-08-09 07:53:00
4:05 AM,71.6,71.6,100,29.93,5.0,Calm,Calm,-,0.01,Rain,Light Rain,0,2013-08-09 08:05:00
4:53 AM,72.0,71.1,97,29.92,6.0,Calm,Calm,-,0.01,,Overcast,0,2013-08-09 08:53:00
5:10 AM,71.6,71.6,100,29.94,6.0,Calm,Calm,-,N/A,,Mostly Cloudy,0,2013-08-09 09:10:00
5:53 AM,72.0,70.0,93,29.93,6.0,Calm,Calm,-,0.00,Rain,Light Rain,0,2013-08-09 09:53:00
6:29 AM,71.6,69.8,94,29.95,3.0,Calm,Calm,-,0.00,,Mostly Cloudy,0,2013-08-09 10:29:00
6:53 AM,71.1,70.0,96,29.94,4.0,Calm,Calm,-,0.00,,Mostly Cloudy,0,2013-08-09 10:53:00
7:02 AM,71.6,69.8,94,29.96,3.0,Calm,Calm,-,N/A,,Overcast,0,2013-08-09 11:02:00
7:22 AM,71.6,69.8,94,29.96,3.0,Calm,Calm,-,N/A,,Overcast,0,2013-08-09 11:22:00
7:42 AM,71.6,71.6,100,29.96,2.5,Calm,Calm,-,N/A,,Overcast,0,2013-08-09 11:42:00
7:53 AM,72.0,71.1,97,29.96,3.0,Calm,Calm,-,N/A,,Overcast,0,2013-08-09 11:53:00
8:30 AM,71.6,71.6,100,29.98,4.0,Calm,Calm,-,N/A,,Overcast,0,2013-08-09 12:30:00
8:53 AM,73.0,71.1,93,29.97,5.0,Calm,Calm,-,0.00,Rain,Light Rain,0,2013-08-09 12:53:00
9:32 AM,73.4,71.6,94,29.99,2.5,Calm,Calm,-,0.00,Rain,Light Rain,0,2013-08-09 13:32:00
9:39 AM,73.4,71.6,94,29.99,3.0,Calm,Calm,-,0.00,Rain,Light Rain,0,2013-08-09 13:39:00
9:53 AM,73.0,72.0,96,29.98,3.0,Calm,Calm,-,0.00,,Overcast,0,2013-08-09 13:53:00
10:19 AM,73.4,71.6,94,29.99,4.0,West,4.6,-,N/A,,Overcast,260,2013-08-09 14:19:00
10:53 AM,73.9,72.0,93,29.97,5.0,West,3.5,-,N/A,,Overcast,280,2013-08-09 14:53:00
11:53 AM,75.9,72.0,87,29.99,7.0,Variable,3.5,-,N/A,,Overcast,0,2013-08-09 15:53:00
12:06 PM,75.2,71.6,89,30.00,8.0,Variable,3.5,-,N/A,,Overcast,0,2013-08-09 16:06:00
12:25 PM,73.4,71.6,94,30.01,6.0,North,6.9,-,0.00,Rain,Light Rain,350,2013-08-09 16:25:00
12:53 PM,73.0,70.0,90,30.00,7.0,North,6.9,-,0.02,Rain,Light Rain,10,2013-08-09 16:53:00
1:53 PM,75.9,71.1,85,30.00,10.0,Variable,5.8,-,0.00,,Overcast,0,2013-08-09 17:53:00
2:11 PM,77.0,71.6,83,30.01,10.0,NNE,6.9,-,N/A,,Overcast,30,2013-08-09 18:11:00
2:34 PM,77.0,71.6,83,30.01,10.0,North,5.8,-,N/A,,Overcast,350,2013-08-09 18:34:00
2:53 PM,78.1,71.1,79,29.99,10.0,North,6.9,-,N/A,,Overcast,350,2013-08-09 18:53:00
3:33 PM,80.6,69.8,70,30.00,10.0,NNW,6.9,-,N/A,,Mostly Cloudy,330,2013-08-09 19:33:00
3:53 PM,82.0,71.1,69,29.98,10.0,NNW,5.8,-,N/A,,Mostly Cloudy,330,2013-08-09 19:53:00
4:07 PM,80.6,69.8,70,30.00,10.0,North,6.9,-,N/A,,Mostly Cloudy,10,2013-08-09 20:07:00
4:17 PM,80.6,69.8,70,29.99,10.0,NW,5.8,-,N/A,,Mostly Cloudy,320,2013-08-09 20:17:00
4:53 PM,80.1,70.0,71,29.99,10.0,North,6.9,-,N/A,,Mostly Cloudy,360,2013-08-09 20:53:00
5:53 PM,82.0,69.1,65,29.98,10.0,North,4.6,-,N/A,,Partly Cloudy,350,2013-08-09 21:53:00
6:53 PM,81.0,69.1,67,29.98,10.0,North,4.6,-,N/A,,Scattered Clouds,10,2013-08-09 22:53:00
7:53 PM,78.1,70.0,76,29.99,10.0,Calm,Calm,-,N/A,,Clear,0,2013-08-09 23:53:00
8:53 PM,72.0,70.0,93,30.00,9.0,Calm,Calm,-,N/A,,Clear,0,2013-08-10 00:53:00
9:53 PM,71.1,69.1,93,30.03,8.0,Calm,Calm,-,N/A,,Clear,0,2013-08-10 01:53:00
10:53 PM,72.0,69.1,91,30.04,9.0,Calm,Calm,-,N/A,,Mostly Cloudy,0,2013-08-10 02:53:00
11:53 PM,71.1,69.1,93,30.04,7.0,Calm,Calm,-,N/A,,Clear,0,2013-08-10 03:53:00